KOGA/OGA METAR and TAF weather

Enter ICAO airport designator
Station Type Date Time Source
KOGA METAR 2022/08/12 15:15 UTC NOAA

KOGA 121515Z AUTO 19008KT 10SM CLR 27/12 A3014 RMK AO2 T02730122


Station Type Date Time Source
KOGA Decoded METAR 2022/08/12 15:15 UTC NOAA

Ogallala, Searle Field Airport, NE, United States (KOGA) 41-07-11N 101-46-08W
Aug 12, 2022 - 11:15 AM EDT / 2022.08.12 1515 UTC
Wind: from the S (190 degrees) at 9 MPH (8 KT):0
Visibility: 10 mile(s):0
Sky conditions: clear
Temperature: 81.1 F (27.3 C)
Dew Point: 54.0 F (12.2 C)
Relative Humidity: 39%
Pressure (altimeter): 30.14 in. Hg (1020 hPa)
ob: KOGA 121515Z AUTO 19008KT 10SM CLR 27/12 A3014 RMK AO2 T02730122
cycle: 15

Station Type Date Time Source
KOGA TAF UTC NOAA

Error!

Example: see airport list